DLH19K LOWW-EDDE
Flight info
| Callsign | DLH19K |
|---|---|
| Flight time | 0h 52m |
| Altitude | 34000 |
| Route | MEDIX DCT LAMSI/N0465F380 L604 RUDNO M736 AKOSI DCT LASGA M726 NARUS NARUS1V |
| Aircraft | A339/H-SADE1E2E3GHIJ3J5M1P2RWXY/LB2D1 |
Departure
| Time | 2026-05-09 12:29 |
|---|---|
| Airport | Vienna International Airport (LOWW) |
Arrival
| Time | 2026-05-09 13:21 |
|---|---|
| Airport | Erfurt-Weimar Airport (EDDE) |
| Time | Latitude | Longitude | Altitude | Speed | Heading |
|---|---|---|---|---|---|
| 2026-05-09 11:57 | 48.12060 | 16.55614 | 597 ft | 0 kts | 106° |
| 2026-05-09 12:16 | 48.12060 | 16.55612 | 597 ft | 1 kts | 106° |
| 2026-05-09 12:16 | 48.12062 | 16.55605 | 597 ft | 1 kts | 106° |
| 2026-05-09 12:16 | 48.12063 | 16.55599 | 597 ft | 1 kts | 110° |
| 2026-05-09 12:17 | 48.12063 | 16.55592 | 597 ft | 1 kts | 118° |
| 2026-05-09 12:17 | 48.12065 | 16.55585 | 597 ft | 1 kts | 127° |
| 2026-05-09 12:17 | 48.12068 | 16.55578 | 597 ft | 2 kts | 136° |
| 2026-05-09 12:17 | 48.12075 | 16.55566 | 596 ft | 1 kts | 158° |
| 2026-05-09 12:18 | 48.12084 | 16.55560 | 596 ft | 1 kts | 179° |
| 2026-05-09 12:18 | 48.12093 | 16.55558 | 596 ft | 1 kts | 199° |
| 2026-05-09 12:18 | 48.12096 | 16.55558 | 596 ft | 0 kts | 206° |
| 2026-05-09 12:19 | 48.12096 | 16.55559 | 596 ft | 0 kts | 206° |
| 2026-05-09 12:21 | 48.12096 | 16.55558 | 596 ft | 0 kts | 205° |
| 2026-05-09 12:22 | 48.12086 | 16.55551 | 596 ft | 4 kts | 205° |
| 2026-05-09 12:22 | 48.12058 | 16.55532 | 597 ft | 4 kts | 205° |
| 2026-05-09 12:22 | 48.12031 | 16.55513 | 598 ft | 4 kts | 208° |
| 2026-05-09 12:22 | 48.12007 | 16.55498 | 599 ft | 3 kts | 195° |
| 2026-05-09 12:23 | 48.11984 | 16.55484 | 599 ft | 4 kts | 205° |
| 2026-05-09 12:23 | 48.11952 | 16.55461 | 600 ft | 8 kts | 206° |
| 2026-05-09 12:23 | 48.11870 | 16.55428 | 599 ft | 17 kts | 191° |
| 2026-05-09 12:23 | 48.11787 | 16.55514 | 601 ft | 14 kts | 121° |
| 2026-05-09 12:24 | 48.11743 | 16.55635 | 617 ft | 13 kts | 117° |
| 2026-05-09 12:24 | 48.11702 | 16.55756 | 620 ft | 13 kts | 117° |
| 2026-05-09 12:24 | 48.11664 | 16.55878 | 616 ft | 12 kts | 112° |
| 2026-05-09 12:24 | 48.11627 | 16.55995 | 619 ft | 13 kts | 120° |
| 2026-05-09 12:25 | 48.11580 | 16.56127 | 619 ft | 16 kts | 115° |
| 2026-05-09 12:25 | 48.11534 | 16.56277 | 614 ft | 17 kts | 116° |
| 2026-05-09 12:25 | 48.11478 | 16.56447 | 616 ft | 20 kts | 117° |
| 2026-05-09 12:25 | 48.11418 | 16.56627 | 614 ft | 19 kts | 116° |
| 2026-05-09 12:26 | 48.11360 | 16.56806 | 616 ft | 19 kts | 116° |
| 2026-05-09 12:26 | 48.11306 | 16.56973 | 622 ft | 17 kts | 116° |
| 2026-05-09 12:26 | 48.11252 | 16.57142 | 624 ft | 18 kts | 116° |
| 2026-05-09 12:26 | 48.11195 | 16.57317 | 624 ft | 19 kts | 114° |
| 2026-05-09 12:27 | 48.11133 | 16.57511 | 622 ft | 21 kts | 116° |
| 2026-05-09 12:27 | 48.11051 | 16.57635 | 614 ft | 9 kts | 186° |
| 2026-05-09 12:27 | 48.10982 | 16.57595 | 623 ft | 11 kts | 205° |
| 2026-05-09 12:27 | 48.10953 | 16.57508 | 618 ft | 9 kts | 263° |
| 2026-05-09 12:28 | 48.10957 | 16.57413 | 624 ft | 9 kts | 283° |
| 2026-05-09 12:28 | 48.10996 | 16.57298 | 618 ft | 30 kts | 296° |
| 2026-05-09 12:28 | 48.11220 | 16.56621 | 624 ft | 114 kts | 297° |
| 2026-05-09 12:28 | 48.11669 | 16.55247 | 674 ft | 170 kts | 296° |
| 2026-05-09 12:29 | 48.12162 | 16.53636 | 1533 ft | 172 kts | 296° |
| 2026-05-09 12:29 | 48.12247 | 16.51822 | 2358 ft | 182 kts | 256° |
| 2026-05-09 12:29 | 48.11659 | 16.50067 | 2923 ft | 201 kts | 242° |
| 2026-05-09 12:29 | 48.11234 | 16.47979 | 3367 ft | 218 kts | 265° |
| 2026-05-09 12:30 | 48.11031 | 16.45658 | 3928 ft | 234 kts | 262° |
| 2026-05-09 12:30 | 48.10716 | 16.43209 | 4468 ft | 245 kts | 258° |
| 2026-05-09 12:30 | 48.09834 | 16.38083 | 5500 ft | 266 kts | 261° |
| 2026-05-09 12:31 | 48.09722 | 16.35299 | 6155 ft | 269 kts | 272° |
| 2026-05-09 12:31 | 48.10491 | 16.29886 | 7640 ft | 270 kts | 285° |
| 2026-05-09 12:31 | 48.11022 | 16.27200 | 8413 ft | 270 kts | 288° |
| 2026-05-09 12:32 | 48.11600 | 16.24557 | 9157 ft | 272 kts | 289° |
| 2026-05-09 12:32 | 48.12197 | 16.21872 | 9945 ft | 272 kts | 288° |
| 2026-05-09 12:32 | 48.12799 | 16.19145 | 10399 ft | 285 kts | 288° |
| 2026-05-09 12:32 | 48.13433 | 16.16234 | 10594 ft | 306 kts | 288° |
| 2026-05-09 12:33 | 48.14110 | 16.13095 | 10855 ft | 323 kts | 288° |
| 2026-05-09 12:33 | 48.14800 | 16.09868 | 11410 ft | 327 kts | 287° |
| 2026-05-09 12:33 | 48.15494 | 16.06609 | 12035 ft | 331 kts | 287° |
| 2026-05-09 12:33 | 48.16201 | 16.03301 | 12633 ft | 334 kts | 287° |
| 2026-05-09 12:34 | 48.16913 | 15.99962 | 13254 ft | 338 kts | 287° |
| 2026-05-09 12:34 | 48.17630 | 15.96589 | 13876 ft | 341 kts | 287° |
| 2026-05-09 12:34 | 48.18354 | 15.93183 | 14436 ft | 344 kts | 287° |
| 2026-05-09 12:34 | 48.19079 | 15.89754 | 15000 ft | 346 kts | 287° |
| 2026-05-09 12:35 | 48.19810 | 15.86296 | 15581 ft | 349 kts | 287° |
| 2026-05-09 12:35 | 48.20535 | 15.82865 | 16125 ft | 352 kts | 287° |
| 2026-05-09 12:35 | 48.21274 | 15.79355 | 16674 ft | 355 kts | 287° |
| 2026-05-09 12:35 | 48.22020 | 15.75809 | 17230 ft | 357 kts | 287° |
| 2026-05-09 12:36 | 48.22769 | 15.72242 | 17773 ft | 360 kts | 286° |
| 2026-05-09 12:36 | 48.23524 | 15.68642 | 18339 ft | 363 kts | 286° |
| 2026-05-09 12:36 | 48.24283 | 15.65018 | 18829 ft | 366 kts | 286° |
| 2026-05-09 12:36 | 48.25047 | 15.61371 | 19348 ft | 367 kts | 286° |
| 2026-05-09 12:37 | 48.25814 | 15.57693 | 19849 ft | 370 kts | 286° |
| 2026-05-09 12:37 | 48.26584 | 15.53995 | 20374 ft | 372 kts | 285° |
| 2026-05-09 12:37 | 48.27482 | 15.50339 | 20852 ft | 375 kts | 291° |
| 2026-05-09 12:37 | 48.28478 | 15.46706 | 21351 ft | 377 kts | 290° |
| 2026-05-09 12:38 | 48.29464 | 15.43040 | 21863 ft | 379 kts | 290° |
| 2026-05-09 12:38 | 48.30452 | 15.39409 | 22390 ft | 382 kts | 290° |
| 2026-05-09 12:38 | 48.31471 | 15.35711 | 22896 ft | 384 kts | 290° |
| 2026-05-09 12:38 | 48.32507 | 15.31983 | 23384 ft | 388 kts | 290° |
| 2026-05-09 12:39 | 48.33555 | 15.28219 | 23855 ft | 391 kts | 290° |
| 2026-05-09 12:39 | 48.34606 | 15.24449 | 24376 ft | 391 kts | 290° |
| 2026-05-09 12:39 | 48.35654 | 15.20683 | 24870 ft | 391 kts | 290° |
| 2026-05-09 12:39 | 48.36705 | 15.16893 | 25345 ft | 393 kts | 289° |
| 2026-05-09 12:40 | 48.37758 | 15.13093 | 25834 ft | 394 kts | 289° |
| 2026-05-09 12:40 | 48.38813 | 15.09280 | 26289 ft | 395 kts | 289° |
| 2026-05-09 12:40 | 48.39856 | 15.05504 | 26739 ft | 397 kts | 289° |
| 2026-05-09 12:40 | 48.40929 | 15.01614 | 27196 ft | 398 kts | 289° |
| 2026-05-09 12:41 | 48.41990 | 14.97757 | 27637 ft | 400 kts | 289° |
| 2026-05-09 12:41 | 48.43040 | 14.93937 | 28063 ft | 401 kts | 289° |
| 2026-05-09 12:41 | 48.44124 | 14.89986 | 28478 ft | 404 kts | 289° |
| 2026-05-09 12:41 | 48.45182 | 14.86126 | 28887 ft | 405 kts | 289° |
| 2026-05-09 12:42 | 48.46273 | 14.82139 | 29280 ft | 407 kts | 289° |
| 2026-05-09 12:42 | 48.47342 | 14.78223 | 29667 ft | 409 kts | 289° |
| 2026-05-09 12:42 | 48.48425 | 14.74251 | 30057 ft | 412 kts | 289° |
| 2026-05-09 12:42 | 48.49518 | 14.70234 | 30396 ft | 414 kts | 289° |
| 2026-05-09 12:43 | 48.50611 | 14.66206 | 30674 ft | 417 kts | 289° |
| 2026-05-09 12:43 | 48.51715 | 14.62139 | 30979 ft | 420 kts | 289° |
| 2026-05-09 12:43 | 48.52825 | 14.58042 | 31272 ft | 423 kts | 289° |
| 2026-05-09 12:43 | 48.53938 | 14.53924 | 31573 ft | 426 kts | 289° |
| 2026-05-09 12:44 | 48.55062 | 14.49760 | 31873 ft | 429 kts | 290° |
| 2026-05-09 12:44 | 48.56189 | 14.45576 | 32181 ft | 432 kts | 290° |
| 2026-05-09 12:44 | 48.56940 | 14.42786 | 32369 ft | 434 kts | 290° |
| 2026-05-09 12:44 | 48.58076 | 14.38554 | 32640 ft | 436 kts | 290° |
| 2026-05-09 12:45 | 48.59220 | 14.34287 | 32873 ft | 439 kts | 290° |
| 2026-05-09 12:45 | 48.60367 | 14.29998 | 33087 ft | 441 kts | 290° |
| 2026-05-09 12:45 | 48.61520 | 14.25682 | 33254 ft | 444 kts | 290° |
| 2026-05-09 12:45 | 48.62675 | 14.21350 | 33433 ft | 445 kts | 290° |
| 2026-05-09 12:46 | 48.63832 | 14.17005 | 33616 ft | 447 kts | 290° |
| 2026-05-09 12:46 | 48.64992 | 14.12637 | 33794 ft | 447 kts | 290° |
| 2026-05-09 12:46 | 48.66150 | 14.08271 | 33995 ft | 448 kts | 290° |
| 2026-05-09 12:46 | 48.67294 | 14.03946 | 34108 ft | 448 kts | 290° |
| 2026-05-09 12:47 | 48.68447 | 13.99581 | 34119 ft | 447 kts | 290° |
| 2026-05-09 12:47 | 48.70749 | 13.90837 | 34108 ft | 447 kts | 290° |
| 2026-05-09 12:48 | 48.73046 | 13.82082 | 34113 ft | 447 kts | 290° |
| 2026-05-09 12:48 | 48.75336 | 13.73319 | 34111 ft | 447 kts | 290° |
| 2026-05-09 12:49 | 48.77621 | 13.64543 | 34105 ft | 448 kts | 290° |
| 2026-05-09 12:49 | 48.79904 | 13.55739 | 34104 ft | 449 kts | 290° |
| 2026-05-09 12:50 | 48.82188 | 13.46893 | 34109 ft | 450 kts | 290° |
| 2026-05-09 12:50 | 48.84455 | 13.38082 | 34103 ft | 451 kts | 290° |
| 2026-05-09 12:51 | 48.86809 | 13.29255 | 34103 ft | 452 kts | 295° |
| 2026-05-09 12:51 | 48.90193 | 13.21214 | 34108 ft | 454 kts | 308° |
| 2026-05-09 12:52 | 48.94570 | 13.14280 | 34113 ft | 455 kts | 314° |
| 2026-05-09 12:52 | 48.98937 | 13.07633 | 33605 ft | 450 kts | 314° |
| 2026-05-09 12:52 | 49.01223 | 13.04131 | 32843 ft | 449 kts | 314° |
| 2026-05-09 12:53 | 49.03427 | 13.00749 | 32295 ft | 450 kts | 314° |
| 2026-05-09 12:53 | 49.05649 | 12.97339 | 32138 ft | 457 kts | 314° |
| 2026-05-09 12:53 | 49.07901 | 12.93881 | 32107 ft | 460 kts | 314° |
| 2026-05-09 12:54 | 49.12365 | 12.87016 | 32105 ft | 458 kts | 314° |
| 2026-05-09 12:54 | 49.16857 | 12.80091 | 32105 ft | 459 kts | 315° |
| 2026-05-09 12:55 | 49.21345 | 12.73157 | 32106 ft | 459 kts | 315° |
| 2026-05-09 12:55 | 49.25832 | 12.66203 | 32107 ft | 459 kts | 315° |
| 2026-05-09 12:56 | 49.30323 | 12.59228 | 32104 ft | 460 kts | 315° |
| 2026-05-09 12:56 | 49.34953 | 12.52450 | 32103 ft | 459 kts | 322° |
| 2026-05-09 12:57 | 49.39983 | 12.46402 | 32104 ft | 459 kts | 322° |
| 2026-05-09 12:57 | 49.44985 | 12.40306 | 32100 ft | 459 kts | 322° |
| 2026-05-09 12:58 | 49.49984 | 12.34194 | 32102 ft | 459 kts | 322° |
| 2026-05-09 12:58 | 49.54955 | 12.28106 | 32105 ft | 459 kts | 323° |
| 2026-05-09 12:59 | 49.59951 | 12.21971 | 32105 ft | 459 kts | 323° |
| 2026-05-09 12:59 | 49.64939 | 12.15831 | 32107 ft | 459 kts | 323° |
| 2026-05-09 12:59 | 49.67420 | 12.12770 | 31918 ft | 455 kts | 323° |
| 2026-05-09 13:00 | 49.69889 | 12.09718 | 31383 ft | 453 kts | 323° |
| 2026-05-09 13:00 | 49.72334 | 12.06675 | 30786 ft | 450 kts | 323° |
| 2026-05-09 13:00 | 49.74727 | 12.03591 | 30270 ft | 446 kts | 322° |
| 2026-05-09 13:00 | 49.77084 | 12.00513 | 29560 ft | 442 kts | 322° |
| 2026-05-09 13:01 | 49.79426 | 11.97456 | 28876 ft | 437 kts | 322° |
| 2026-05-09 13:01 | 49.81747 | 11.94433 | 28202 ft | 433 kts | 322° |
| 2026-05-09 13:01 | 49.84054 | 11.91431 | 27561 ft | 430 kts | 322° |
| 2026-05-09 13:01 | 49.86306 | 11.88500 | 26918 ft | 426 kts | 322° |
| 2026-05-09 13:02 | 49.88564 | 11.85560 | 26286 ft | 422 kts | 321° |
| 2026-05-09 13:02 | 49.90808 | 11.82631 | 25633 ft | 419 kts | 321° |
| 2026-05-09 13:02 | 49.93034 | 11.79724 | 25020 ft | 416 kts | 321° |
| 2026-05-09 13:02 | 49.95245 | 11.76835 | 24414 ft | 413 kts | 321° |
| 2026-05-09 13:03 | 49.97433 | 11.73969 | 23811 ft | 410 kts | 321° |
| 2026-05-09 13:03 | 49.99613 | 11.71112 | 23125 ft | 407 kts | 320° |
| 2026-05-09 13:03 | 50.01769 | 11.68284 | 22463 ft | 403 kts | 320° |
| 2026-05-09 13:03 | 50.03901 | 11.65485 | 21799 ft | 399 kts | 320° |
| 2026-05-09 13:04 | 50.05987 | 11.62743 | 21149 ft | 396 kts | 320° |
| 2026-05-09 13:04 | 50.08108 | 11.59950 | 20485 ft | 393 kts | 320° |
| 2026-05-09 13:04 | 50.10185 | 11.57212 | 19828 ft | 389 kts | 319° |
| 2026-05-09 13:04 | 50.12239 | 11.54502 | 19173 ft | 386 kts | 319° |
| 2026-05-09 13:05 | 50.14256 | 11.51840 | 18517 ft | 383 kts | 319° |
| 2026-05-09 13:05 | 50.16282 | 11.49161 | 17797 ft | 380 kts | 319° |
| 2026-05-09 13:05 | 50.18284 | 11.46506 | 17103 ft | 376 kts | 319° |
| 2026-05-09 13:05 | 50.20269 | 11.43869 | 16404 ft | 372 kts | 319° |
| 2026-05-09 13:06 | 50.22235 | 11.41254 | 15735 ft | 369 kts | 319° |
| 2026-05-09 13:06 | 50.24183 | 11.38664 | 15064 ft | 366 kts | 319° |
| 2026-05-09 13:06 | 50.26115 | 11.36095 | 14455 ft | 363 kts | 319° |
| 2026-05-09 13:06 | 50.28032 | 11.33546 | 13778 ft | 360 kts | 319° |
| 2026-05-09 13:07 | 50.29934 | 11.31012 | 13070 ft | 357 kts | 319° |
| 2026-05-09 13:07 | 50.31809 | 11.28508 | 12393 ft | 353 kts | 319° |
| 2026-05-09 13:07 | 50.33667 | 11.26017 | 11700 ft | 350 kts | 318° |
| 2026-05-09 13:07 | 50.35648 | 11.23854 | 11066 ft | 347 kts | 331° |
| 2026-05-09 13:08 | 50.37900 | 11.22585 | 10506 ft | 343 kts | 347° |
| 2026-05-09 13:08 | 50.40202 | 11.22188 | 10270 ft | 320 kts | 355° |
| 2026-05-09 13:08 | 50.42337 | 11.21923 | 10049 ft | 296 kts | 354° |
| 2026-05-09 13:08 | 50.44317 | 11.21630 | 9451 ft | 286 kts | 353° |
| 2026-05-09 13:09 | 50.46285 | 11.21317 | 8741 ft | 283 kts | 353° |
| 2026-05-09 13:09 | 50.48232 | 11.21009 | 8010 ft | 281 kts | 353° |
| 2026-05-09 13:09 | 50.50165 | 11.20707 | 7276 ft | 278 kts | 353° |
| 2026-05-09 13:09 | 50.52085 | 11.20404 | 6655 ft | 277 kts | 353° |
| 2026-05-09 13:10 | 50.53994 | 11.20111 | 6126 ft | 274 kts | 354° |
| 2026-05-09 13:10 | 50.55882 | 11.19826 | 5578 ft | 271 kts | 354° |
| 2026-05-09 13:10 | 50.57734 | 11.19545 | 5166 ft | 266 kts | 354° |
| 2026-05-09 13:10 | 50.59600 | 11.19264 | 5004 ft | 270 kts | 354° |
| 2026-05-09 13:11 | 50.61462 | 11.18978 | 4964 ft | 268 kts | 354° |
| 2026-05-09 13:11 | 50.63323 | 11.18695 | 4958 ft | 270 kts | 354° |
| 2026-05-09 13:11 | 50.65190 | 11.18411 | 4966 ft | 269 kts | 354° |
| 2026-05-09 13:11 | 50.67061 | 11.18571 | 4957 ft | 270 kts | 12° |
| 2026-05-09 13:12 | 50.68787 | 11.19693 | 4971 ft | 270 kts | 30° |
| 2026-05-09 13:12 | 50.70421 | 11.21162 | 4964 ft | 270 kts | 29° |
| 2026-05-09 13:12 | 50.72067 | 11.22602 | 4970 ft | 270 kts | 28° |
| 2026-05-09 13:12 | 50.73724 | 11.24020 | 4970 ft | 271 kts | 28° |
| 2026-05-09 13:13 | 50.75361 | 11.25399 | 4974 ft | 270 kts | 28° |
| 2026-05-09 13:13 | 50.77026 | 11.26795 | 4979 ft | 271 kts | 28° |
| 2026-05-09 13:13 | 50.78691 | 11.28194 | 4977 ft | 271 kts | 28° |
| 2026-05-09 13:13 | 50.80362 | 11.29604 | 4977 ft | 271 kts | 28° |
| 2026-05-09 13:14 | 50.82023 | 11.31009 | 4979 ft | 270 kts | 28° |
| 2026-05-09 13:14 | 50.83682 | 11.32416 | 4979 ft | 270 kts | 28° |
| 2026-05-09 13:16 | 50.94875 | 11.32251 | 3988 ft | 234 kts | 290° |
| 2026-05-09 13:16 | 50.95265 | 11.29758 | 3989 ft | 232 kts | 278° |
| 2026-05-09 13:16 | 50.95466 | 11.27265 | 3983 ft | 219 kts | 276° |
| 2026-05-09 13:16 | 50.95649 | 11.24971 | 3985 ft | 201 kts | 277° |
| 2026-05-09 13:17 | 50.95822 | 11.22847 | 3994 ft | 187 kts | 277° |
| 2026-05-09 13:17 | 50.95979 | 11.20881 | 3952 ft | 173 kts | 277° |
| 2026-05-09 13:17 | 50.96127 | 11.19044 | 3769 ft | 167 kts | 277° |
| 2026-05-09 13:17 | 50.96275 | 11.17194 | 3560 ft | 167 kts | 277° |
| 2026-05-09 13:18 | 50.96415 | 11.15441 | 3334 ft | 154 kts | 277° |
| 2026-05-09 13:18 | 50.96552 | 11.13728 | 3126 ft | 158 kts | 277° |
| 2026-05-09 13:18 | 50.96686 | 11.12055 | 2915 ft | 150 kts | 277° |
| 2026-05-09 13:18 | 50.96820 | 11.10374 | 2715 ft | 153 kts | 278° |
| 2026-05-09 13:19 | 50.96952 | 11.08720 | 2525 ft | 153 kts | 278° |
| 2026-05-09 13:19 | 50.97083 | 11.07057 | 2301 ft | 149 kts | 278° |
| 2026-05-09 13:19 | 50.97216 | 11.05396 | 2108 ft | 153 kts | 278° |
| 2026-05-09 13:19 | 50.97345 | 11.03772 | 1882 ft | 146 kts | 278° |
| 2026-05-09 13:20 | 50.97480 | 11.02112 | 1655 ft | 151 kts | 279° |
| 2026-05-09 13:20 | 50.97607 | 11.00500 | 1453 ft | 150 kts | 279° |
| 2026-05-09 13:20 | 50.97736 | 10.98886 | 1268 ft | 150 kts | 279° |
| 2026-05-09 13:20 | 50.97874 | 10.97252 | 1045 ft | 146 kts | 278° |
| 2026-05-09 13:21 | 50.97974 | 10.95878 | 1031 ft | 96 kts | 276° |
| 2026-05-09 13:21 | 50.98042 | 10.95089 | 1037 ft | 61 kts | 277° |
| 2026-05-09 13:21 | 50.98082 | 10.94570 | 1036 ft | 43 kts | 278° |
| 2026-05-09 13:21 | 50.98114 | 10.94173 | 1037 ft | 30 kts | 277° |
| 2026-05-09 13:22 | 50.98089 | 10.94053 | 1036 ft | 7 kts | 212° |
| 2026-05-09 13:22 | 50.98048 | 10.94063 | 1037 ft | 6 kts | 157° |
| 2026-05-09 13:22 | 50.98011 | 10.94095 | 1037 ft | 7 kts | 149° |
| 2026-05-09 13:23 | 50.97924 | 10.94412 | 1036 ft | 11 kts | 98° |
| 2026-05-09 13:23 | 50.97912 | 10.94552 | 1036 ft | 14 kts | 97° |
| 2026-05-09 13:24 | 50.97901 | 10.94708 | 1036 ft | 15 kts | 95° |
| 2026-05-09 13:24 | 50.97873 | 10.94871 | 1035 ft | 16 kts | 115° |
| 2026-05-09 13:24 | 50.97827 | 10.95027 | 1033 ft | 16 kts | 97° |
| 2026-05-09 13:24 | 50.97815 | 10.95210 | 1033 ft | 17 kts | 97° |
| 2026-05-09 13:25 | 50.97800 | 10.95403 | 1034 ft | 18 kts | 97° |
| 2026-05-09 13:25 | 50.97785 | 10.95606 | 1033 ft | 19 kts | 98° |
| 2026-05-09 13:25 | 50.97725 | 10.95924 | 1029 ft | 9 kts | 174° |
| 2026-05-09 13:26 | 50.97660 | 10.95944 | 1031 ft | 9 kts | 160° |
| 2026-05-09 13:26 | 50.97614 | 10.96004 | 1028 ft | 5 kts | 113° |
| 2026-05-09 13:26 | 50.97630 | 10.96031 | 1031 ft | 3 kts | 48° |
| 2026-05-09 13:26 | 50.97638 | 10.96068 | 1032 ft | 4 kts | 78° |
| 2026-05-09 13:27 | 50.97626 | 10.96098 | 1030 ft | 2 kts | 133° |
| 2026-05-09 13:27 | 50.97612 | 10.96102 | 1029 ft | 3 kts | 162° |
| 2026-05-09 13:27 | 50.97600 | 10.96092 | 1031 ft | 2 kts | 199° |
| 2026-05-09 13:27 | 50.97585 | 10.96081 | 1029 ft | 3 kts | 205° |
| 2026-05-09 13:28 | 50.97575 | 10.96071 | 1030 ft | 1 kts | 211° |
| 2026-05-09 13:28 | 50.97575 | 10.96070 | 1030 ft | 0 kts | 213° |